Time;durP1;ratioP1;P1;durP2;ratioP2;P2;SDS_P1;SDS_P2;PMS_P1;PMS_P2;Temp;Humidity;BMP_temperature;BMP_pressure;BME280_temperature;BME280_humidity;BME280_pressure;Samples;Min_cycle;Max_cycle;Signal;HPM_P1;HPM_P2
2022/04/14 00:01:47;;;;;;;15.65;8.23;;;10.50;99.90;;;;;;4880157;29;20051;-80
2022/04/14 00:04:13;;;;;;;20.73;9.23;;;10.50;99.90;;;;;;4897565;29;20072;-78
2022/04/14 00:06:39;;;;;;;15.25;8.15;;;10.40;99.90;;;;;;4897783;29;20100;-80
2022/04/14 00:09:04;;;;;;;15.75;8.40;;;10.40;99.90;;;;;;4897507;29;20060;-80
2022/04/14 00:11:30;;;;;;;16.08;7.15;;;10.40;99.90;;;;;;4897529;29;20086;-81
2022/04/14 00:13:56;;;;;;;16.48;7.65;;;10.40;99.90;;;;;;4897818;29;20397;-80
2022/04/14 00:16:22;;;;;;;17.33;7.72;;;10.40;99.90;;;;;;4898776;29;20104;-80
2022/04/14 00:18:47;;;;;;;15.98;7.28;;;10.40;99.90;;;;;;4881922;29;20056;-81
2022/04/14 00:21:13;;;;;;;18.40;7.20;;;10.40;99.90;;;;;;4899829;29;20481;-79
2022/04/14 00:23:39;;;;;;;16.55;7.65;;;10.40;99.90;;;;;;4898725;29;20045;-81
2022/04/14 00:26:05;;;;;;;14.43;7.20;;;10.60;99.90;;;;;;4898691;29;20052;-81
2022/04/14 00:28:30;;;;;;;16.40;6.95;;;10.30;99.90;;;;;;4881331;29;20087;-81
2022/04/14 00:30:58;;;;;;;14.88;6.80;;;10.30;99.90;;;;;;4881498;29;20065;-80
2022/04/14 00:33:24;;;;;;;14.52;7.47;;;10.30;99.90;;;;;;4898374;29;20061;-80
2022/04/14 00:35:49;;;;;;;16.90;7.63;;;10.30;99.90;;;;;;4898440;29;20064;-80
2022/04/14 00:38:15;;;;;;;15.00;7.38;;;10.20;99.90;;;;;;4881133;29;20041;-81
2022/04/14 00:40:41;;;;;;;19.90;7.10;;;10.20;99.90;;;;;;4881838;29;20053;-80
2022/04/14 00:43:06;;;;;;;15.75;7.00;;;10.20;99.90;;;;;;4898405;29;20052;-80
2022/04/14 00:45:32;;;;;;;14.98;7.32;;;10.20;99.90;;;;;;4897426;29;20048;-80
2022/04/14 00:47:58;;;;;;;16.27;8.10;;;10.10;99.90;;;;;;4880353;29;20080;-80
2022/04/14 00:50:23;;;;;;;16.15;7.05;;;10.10;99.90;;;;;;4896928;29;20108;-81
2022/04/14 00:52:49;;;;;;;17.65;8.10;;;10.10;99.90;;;;;;4897172;29;20409;-81
2022/04/14 00:55:15;;;;;;;17.88;7.50;;;10.10;99.90;;;;;;4897231;29;20080;-81
2022/04/14 00:57:43;;;;;;;15.05;8.18;;;10.10;99.90;;;;;;4897238;29;20437;-81
2022/04/14 01:00:09;;;;;;;17.88;7.85;;;10.10;99.90;;;;;;4880177;29;20071;-81
2022/04/14 01:02:35;;;;;;;16.90;8.40;;;10.10;99.90;;;;;;4896796;29;20057;-79
2022/04/14 01:05:02;;;;;;;16.83;8.10;;;10.10;99.90;;;;;;4897041;29;20052;-81
2022/04/14 01:07:28;;;;;;;17.33;8.07;;;10.10;99.90;;;;;;4879209;29;20139;-79
2022/04/14 01:09:55;;;;;;;18.63;8.13;;;10.20;99.90;;;;;;4897586;29;20045;-80
2022/04/14 01:12:21;;;;;;;15.93;7.40;;;10.00;99.90;;;;;;4883453;29;20135;-80
2022/04/14 01:14:47;;;;;;;18.90;8.23;;;10.20;99.90;;;;;;4900198;29;20454;-80
2022/04/14 01:17:13;;;;;;;18.40;7.90;;;10.00;99.90;;;;;;4900161;29;20048;-76
2022/04/14 01:19:39;;;;;;;17.67;8.32;;;10.00;99.90;;;;;;4900633;29;20048;-78
2022/04/14 01:22:15;;;;;;;18.50;8.52;;;10.00;99.90;;;;;;4901602;29;20040;-79
2022/04/14 01:24:41;;;;;;;16.98;8.68;;;10.20;99.90;;;;;;4901492;29;20052;-80
2022/04/14 01:27:07;;;;;;;14.43;7.93;;;10.00;99.90;;;;;;4880998;29;20398;-81
2022/04/14 01:29:34;;;;;;;18.40;9.10;;;10.00;99.90;;;;;;4900621;29;20048;-80
2022/04/14 01:32:03;;;;;;;16.58;8.20;;;9.90;99.90;;;;;;4883240;29;20060;-80
2022/04/14 01:34:30;;;;;;;15.65;7.88;;;10.20;99.90;;;;;;4882967;29;20068;-76
2022/04/14 01:37:02;;;;;;;16.63;7.97;;;9.90;99.90;;;;;;4900148;29;20052;-81
2022/04/14 01:39:29;;;;;;;16.00;8.60;;;10.20;99.90;;;;;;4899466;29;20089;-80
2022/04/14 01:41:56;;;;;;;16.50;8.45;;;9.90;99.90;;;;;;4899823;29;20136;-80
2022/04/14 01:44:22;;;;;;;18.05;8.75;;;9.80;99.90;;;;;;4882370;29;20063;-80
2022/04/14 01:46:47;;;;;;;17.08;8.90;;;9.80;99.90;;;;;;4882866;29;20053;-81
2022/04/14 01:49:13;;;;;;;14.65;8.13;;;9.80;99.90;;;;;;4899874;29;20104;-76
2022/04/14 01:51:39;;;;;;;20.42;9.43;;;9.70;99.90;;;;;;4899848;29;20462;-79
2022/04/14 01:54:05;;;;;;;16.00;8.30;;;10.00;99.90;;;;;;4899220;29;20120;-80
2022/04/14 01:56:32;;;;;;;17.00;8.93;;;9.70;99.90;;;;;;4899424;29;20041;-78
2022/04/14 01:58:58;;;;;;;16.10;8.88;;;9.70;99.90;;;;;;4899519;29;20501;-80
2022/04/14 02:01:24;;;;;;;18.65;9.02;;;9.60;99.90;;;;;;4882534;29;20052;-81
2022/04/14 02:03:50;;;;;;;19.02;9.55;;;9.60;99.90;;;;;;4899604;29;20404;-80
2022/04/14 02:06:16;;;;;;;18.13;9.23;;;9.70;99.90;;;;;;4899646;29;20124;-80
2022/04/14 02:08:43;;;;;;;18.92;9.65;;;9.60;99.90;;;;;;4899317;29;20055;-80
2022/04/14 02:11:10;;;;;;;20.75;10.00;;;9.60;99.90;;;;;;4898813;29;20060;-81
2022/04/14 02:13:36;;;;;;;19.58;10.27;;;9.80;99.90;;;;;;4899331;29;20127;-81
2022/04/14 02:16:03;;;;;;;18.42;9.75;;;9.60;99.90;;;;;;4899042;29;20044;-79
2022/04/14 02:18:28;;;;;;;18.58;9.85;;;9.60;99.90;;;;;;4899353;29;20041;-80
2022/04/14 02:20:54;;;;;;;17.58;9.30;;;9.60;99.90;;;;;;4899035;29;20508;-78
2022/04/14 02:23:20;;;;;;;21.23;9.93;;;9.60;99.90;;;;;;4881443;29;20057;-79
2022/04/14 02:25:46;;;;;;;19.13;9.10;;;9.60;99.90;;;;;;4899067;29;20044;-80
2022/04/14 02:28:13;;;;;;;20.67;10.10;;;9.50;99.90;;;;;;4898564;29;20127;-80
2022/04/14 02:30:39;;;;;;;20.15;9.20;;;9.50;99.90;;;;;;4898824;29;20470;-81
2022/04/14 02:33:05;;;;;;;18.58;9.95;;;9.50;99.90;;;;;;4881794;29;20100;-80
2022/04/14 02:35:30;;;;;;;19.67;10.32;;;9.50;99.90;;;;;;4899052;29;20049;-80
2022/04/14 02:37:56;;;;;;;20.40;10.23;;;9.40;99.90;;;;;;4881928;29;20420;-81
2022/04/14 02:40:26;;;;;;;19.63;9.85;;;9.40;99.90;;;;;;4898929;29;20048;-80
2022/04/14 02:42:57;;;;;;;21.35;9.88;;;9.40;99.90;;;;;;4898190;29;20048;-80
2022/04/14 02:45:23;;;;;;;20.83;10.40;;;9.70;99.90;;;;;;4881688;29;20117;-81
2022/04/14 02:47:50;;;;;;;19.40;10.07;;;9.40;99.90;;;;;;4898779;29;20485;-80
2022/04/14 02:50:15;;;;;;;17.83;10.15;;;9.60;99.90;;;;;;4898753;29;20140;-80
2022/04/14 02:52:41;;;;;;;21.02;10.82;;;9.40;99.90;;;;;;4881784;29;20045;-80
2022/04/14 02:55:08;;;;;;;20.55;10.20;;;9.40;99.90;;;;;;4898552;29;20056;-80
2022/04/14 02:57:34;;;;;;;20.80;10.38;;;9.40;99.90;;;;;;4898363;29;20084;-80
2022/04/14 03:00:00;;;;;;;19.48;10.70;;;9.40;99.90;;;;;;4880842;29;20088;-80
2022/04/14 03:02:25;;;;;;;22.02;10.52;;;9.40;99.90;;;;;;4898213;29;20040;-80
2022/04/14 03:04:51;;;;;;;19.80;10.60;;;9.40;99.90;;;;;;4898267;29;20048;-82
2022/04/14 03:07:17;;;;;;;20.98;10.77;;;9.40;99.90;;;;;;4898122;29;20401;-80
2022/04/14 03:09:43;;;;;;;21.55;10.35;;;9.40;99.90;;;;;;4898377;29;20056;-81
2022/04/14 03:12:09;;;;;;;20.52;10.65;;;9.30;99.90;;;;;;4898211;29;20093;-78
2022/04/14 03:14:34;;;;;;;23.17;11.60;;;9.30;99.90;;;;;;4897709;29;20060;-80
2022/04/14 03:17:00;;;;;;;23.35;11.27;;;9.30;99.90;;;;;;4881105;29;20056;-80
2022/04/14 03:19:26;;;;;;;21.58;10.88;;;9.30;99.90;;;;;;4898109;29;20048;-81
2022/04/14 03:21:51;;;;;;;17.98;9.95;;;9.30;99.90;;;;;;4897985;29;20044;-81
2022/04/14 03:24:17;;;;;;;18.88;9.82;;;9.30;99.90;;;;;;4881085;29;20052;-80
2022/04/14 03:26:43;;;;;;;17.23;10.23;;;9.20;99.90;;;;;;4898021;29;20059;-80
2022/04/14 03:29:08;;;;;;;20.05;10.82;;;9.20;99.90;;;;;;4897898;29;20161;-80
2022/04/14 03:31:34;;;;;;;17.80;10.35;;;9.20;99.90;;;;;;4897174;29;20060;-80
2022/04/14 03:34:00;;;;;;;21.48;11.35;;;9.10;99.90;;;;;;4897199;29;20426;-80
2022/04/14 03:36:25;;;;;;;22.85;11.75;;;9.10;99.90;;;;;;4897881;29;20048;-81
2022/04/14 03:38:51;;;;;;;23.40;11.68;;;9.10;99.90;;;;;;4897835;29;20379;-81
2022/04/14 03:41:17;;;;;;;20.38;10.85;;;9.10;99.90;;;;;;4897837;29;20052;-80
2022/04/14 03:43:42;;;;;;;23.08;11.40;;;9.10;99.90;;;;;;4881317;29;20045;-79
2022/04/14 03:46:08;;;;;;;23.08;12.90;;;9.10;99.90;;;;;;4897559;29;20509;-80
2022/04/14 03:48:34;;;;;;;25.42;12.95;;;9.10;99.90;;;;;;4897134;29;20055;-79
2022/04/14 03:51:00;;;;;;;26.25;13.18;;;9.10;99.90;;;;;;4880956;29;20040;-80
2022/04/14 03:53:26;;;;;;;24.15;14.07;;;9.10;99.90;;;;;;4897547;29;20080;-81
2022/04/14 03:55:52;;;;;;;19.98;11.57;;;9.10;99.90;;;;;;4880789;29;20421;-81
2022/04/14 03:58:18;;;;;;;22.65;12.18;;;9.00;99.90;;;;;;4880740;29;20056;-81
2022/04/14 04:00:44;;;;;;;24.55;13.10;;;9.10;99.90;;;;;;4880542;29;20044;-80
2022/04/14 04:03:13;;;;;;;23.75;13.90;;;9.00;99.90;;;;;;4896781;29;20051;-78
2022/04/14 04:05:39;;;;;;;24.85;13.18;;;9.00;99.90;;;;;;4897741;29;20041;-80
2022/04/14 04:08:05;;;;;;;25.15;13.90;;;9.00;99.90;;;;;;4897239;29;20132;-80
2022/04/14 04:10:31;;;;;;;22.33;13.27;;;8.90;99.90;;;;;;4880435;29;20060;-80
2022/04/14 04:12:57;;;;;;;23.88;13.57;;;8.90;99.90;;;;;;4897599;29;20047;-81
2022/04/14 04:15:23;;;;;;;27.80;14.02;;;8.90;99.90;;;;;;4897504;29;20055;-80
2022/04/14 04:17:51;;;;;;;26.77;14.70;;;8.80;99.90;;;;;;4880691;29;20127;-80
2022/04/14 04:20:18;;;;;;;25.50;13.98;;;8.90;99.90;;;;;;4896852;29;20053;-80
2022/04/14 04:22:44;;;;;;;24.42;14.57;;;8.80;99.90;;;;;;4897599;29;20045;-80
2022/04/14 04:25:10;;;;;;;25.70;15.00;;;8.80;99.90;;;;;;4880516;29;20112;-80
2022/04/14 04:27:36;;;;;;;24.25;14.75;;;8.80;99.90;;;;;;4897370;29;20755;-81
2022/04/14 04:30:06;;;;;;;26.70;15.18;;;8.70;99.90;;;;;;4897216;29;20108;-80
2022/04/14 04:32:33;;;;;;;24.85;14.65;;;8.70;99.90;;;;;;4880028;29;20044;-81
2022/04/14 04:35:02;;;;;;;25.90;15.80;;;8.70;99.90;;;;;;4896595;29;20053;-80
2022/04/14 04:37:28;;;;;;;19.80;10.65;;;8.60;99.90;;;;;;4897349;29;20064;-77
2022/04/14 04:39:54;;;;;;;22.80;11.52;;;8.60;99.90;;;;;;4897152;29;20051;-79
2022/04/14 04:42:20;;;;;;;23.20;12.75;;;8.50;99.90;;;;;;4897047;29;20126;-80
2022/04/14 04:44:45;;;;;;;27.45;11.23;;;8.70;99.90;;;;;;4897622;29;20076;-80
2022/04/14 04:47:11;;;;;;;22.58;12.18;;;8.40;99.90;;;;;;4900596;29;20060;-79
2022/04/14 04:49:37;;;;;;;23.55;12.60;;;8.40;99.90;;;;;;4884041;29;20052;-80
2022/04/14 04:52:02;;;;;;;25.58;13.10;;;8.40;99.90;;;;;;4900277;29;20496;-80
2022/04/14 04:54:28;;;;;;;24.45;12.55;;;8.30;99.90;;;;;;4900644;29;20061;-81
2022/04/14 04:56:54;;;;;;;24.67;13.05;;;8.40;99.90;;;;;;4884148;29;20052;-80
2022/04/14 04:59:19;;;;;;;24.05;11.95;;;8.30;99.90;;;;;;4900348;29;20040;-74
2022/04/14 05:01:45;;;;;;;24.15;13.35;;;8.20;99.90;;;;;;4900400;29;20044;-80
2022/04/14 05:04:11;;;;;;;25.80;13.48;;;8.20;99.90;;;;;;4904940;29;20437;-80
2022/04/14 05:06:37;;;;;;;26.25;13.90;;;8.30;99.90;;;;;;4899489;29;20138;-80
2022/04/14 05:09:03;;;;;;;24.58;13.02;;;8.30;99.90;;;;;;4902377;29;20051;-78
2022/04/14 05:11:29;;;;;;;28.38;14.27;;;8.30;99.90;;;;;;4900477;29;20037;-80
2022/04/14 05:13:55;;;;;;;28.58;13.40;;;8.30;99.90;;;;;;4898679;29;20131;-81
2022/04/14 05:16:20;;;;;;;24.98;12.23;;;8.30;99.90;;;;;;4898013;29;20040;-84
2022/04/14 05:18:50;;;;;;;25.25;12.98;;;8.70;99.90;;;;;;4880039;29;20120;-87
2022/04/14 05:21:16;;;;;;;24.15;12.20;;;8.20;99.90;;;;;;4882144;29;20082;-79
2022/04/14 05:23:41;;;;;;;24.73;13.48;;;8.20;99.90;;;;;;4898261;29;20502;-81
2022/04/14 05:26:07;;;;;;;22.92;13.13;;;8.30;99.90;;;;;;4850212;29;20139;-81
2022/04/14 05:28:33;;;;;;;27.45;12.30;;;8.30;99.90;;;;;;4898803;29;20049;-78
2022/04/14 05:30:58;;;;;;;25.63;12.88;;;8.20;99.90;;;;;;4881521;29;20064;-70
2022/04/14 05:33:24;;;;;;;23.23;12.75;;;8.20;99.90;;;;;;4898750;29;20424;-74
2022/04/14 05:35:50;;;;;;;23.08;12.40;;;8.50;99.90;;;;;;4898137;29;20048;-76
2022/04/14 05:38:16;;;;;;;25.92;13.35;;;8.30;99.90;;;;;;4881592;29;20135;-76
2022/04/14 05:40:43;;;;;;;22.45;12.63;;;8.40;99.90;;;;;;4898310;29;20394;-74
2022/04/14 05:43:19;;;;;;;26.55;12.90;;;8.40;99.90;;;;;;4898196;29;20049;-78
2022/04/14 05:45:47;;;;;;;22.52;12.55;;;8.40;99.90;;;;;;4898364;29;20045;-73
2022/04/14 05:48:14;;;;;;;26.60;13.20;;;8.40;99.90;;;;;;4881312;29;20052;-74
2022/04/14 05:50:41;;;;;;;25.67;12.27;;;8.40;99.90;;;;;;4898594;29;20096;-74
2022/04/14 05:53:06;;;;;;;23.38;12.88;;;8.40;99.90;;;;;;4898304;29;20497;-79
2022/04/14 05:55:32;;;;;;;21.88;12.45;;;8.40;99.90;;;;;;4897031;29;20067;-79
2022/04/14 05:57:58;;;;;;;27.33;12.75;;;8.40;99.90;;;;;;4898033;29;20044;-79
2022/04/14 06:00:23;;;;;;;24.17;12.68;;;8.50;99.90;;;;;;4897707;29;20051;-73
2022/04/14 06:02:49;;;;;;;24.42;12.45;;;8.50;99.90;;;;;;4898451;29;20070;-75
2022/04/14 06:05:15;;;;;;;25.48;13.82;;;8.60;99.90;;;;;;4897478;29;20136;-73
2022/04/14 06:07:40;;;;;;;24.88;13.73;;;8.60;99.90;;;;;;4897644;29;20069;-72
2022/04/14 06:10:06;;;;;;;30.13;15.77;;;8.70;99.90;;;;;;4880892;29;20179;-76
2022/04/14 06:12:32;;;;;;;33.03;17.45;;;8.80;99.90;;;;;;4880608;29;20052;-75
2022/04/14 06:14:57;;;;;;;32.53;18.05;;;8.90;99.90;;;;;;4897749;29;20604;-73
2022/04/14 06:17:23;;;;;;;32.25;18.58;;;9.00;99.90;;;;;;4880697;29;20048;-75
2022/04/14 06:19:48;;;;;;;33.10;16.80;;;9.10;99.90;;;;;;4880987;29;20052;-77
2022/04/14 06:22:14;;;;;;;35.13;19.05;;;9.50;99.90;;;;;;4897654;29;20063;-82
2022/04/14 06:24:40;;;;;;;34.40;17.65;;;9.30;99.90;;;;;;4897741;29;20041;-77
2022/04/14 06:27:08;;;;;;;33.58;19.35;;;9.30;99.90;;;;;;4896687;29;20138;-75
2022/04/14 06:29:33;;;;;;;30.75;15.40;;;9.40;99.90;;;;;;4897518;29;20523;-79
2022/04/14 06:31:59;;;;;;;35.17;16.58;;;9.50;99.90;;;;;;4865260;29;20136;-76
2022/04/14 06:34:25;;;;;;;32.65;15.88;;;9.60;99.90;;;;;;4880397;29;20524;-76
2022/04/14 06:36:50;;;;;;;33.45;16.15;;;9.80;99.90;;;;;;4880138;29;20409;-85
2022/04/14 06:39:16;;;;;;;34.33;16.08;;;9.80;99.90;;;;;;4880827;29;20544;-82
2022/04/14 06:41:42;;;;;;;35.42;16.20;;;9.80;99.90;;;;;;4880541;29;20059;-82
2022/04/14 06:44:07;;;;;;;33.90;15.43;;;10.30;99.90;;;;;;4896928;29;20045;-82
2022/04/14 06:46:33;;;;;;;39.00;17.23;;;10.00;99.90;;;;;;4897071;29;20131;-78
2022/04/14 06:48:59;;;;;;;36.75;18.25;;;10.00;99.90;;;;;;4897821;29;20044;-85
2022/04/14 06:51:24;;;;;;;37.90;15.75;;;10.10;99.90;;;;;;4880626;29;20056;-82
2022/04/14 06:53:50;;;;;;;33.53;17.38;;;10.20;99.90;;;;;;4896915;29;20478;-86
2022/04/14 06:56:16;;;;;;;38.55;17.88;;;10.20;99.90;;;;;;4879656;29;20063;-81
2022/04/14 06:58:42;;;;;;;35.28;16.67;;;10.30;99.90;;;;;;4880095;29;20088;-81
2022/04/14 07:01:08;;;;;;;36.85;16.60;;;10.60;99.90;;;;;;4896845;29;20137;-85
2022/04/14 07:03:34;;;;;;;35.78;16.52;;;10.90;99.90;;;;;;4896793;29;20505;-83
2022/04/14 07:06:00;;;;;;;35.20;15.00;;;10.50;99.90;;;;;;4896795;29;20390;-80
2022/04/14 07:08:27;;;;;;;29.58;14.90;;;11.00;99.90;;;;;;4880156;29;20108;-89
2022/04/14 07:10:54;;;;;;;35.67;15.77;;;10.80;99.90;;;;;;4897933;29;20121;-83
2022/04/14 07:13:20;;;;;;;33.60;15.73;;;10.80;99.90;;;;;;4901611;29;20456;-88
2022/04/14 07:15:46;;;;;;;32.70;16.27;;;10.80;99.90;;;;;;4887210;29;20052;-80
2022/04/14 07:18:11;;;;;;;30.33;15.48;;;11.00;99.90;;;;;;4889634;29;20382;-76
2022/04/14 07:20:38;;;;;;;30.38;14.73;;;11.10;99.90;;;;;;4913336;29;20052;-83
2022/04/14 07:23:05;;;;;;;32.15;15.45;;;11.10;99.90;;;;;;4915817;29;20040;-79
2022/04/14 07:25:33;;;;;;;33.28;16.25;;;11.20;99.90;;;;;;4914917;29;20424;-76
2022/04/14 07:27:59;;;;;;;29.42;14.27;;;11.30;99.90;;;;;;4914925;29;20090;-77
2022/04/14 07:30:26;;;;;;;36.20;14.68;;;11.40;99.90;;;;;;4915263;29;20087;-74
2022/04/14 07:32:53;;;;;;;28.45;13.18;;;11.50;99.90;;;;;;4914367;29;20048;-75
2022/04/14 07:35:22;;;;;;;30.38;14.27;;;11.60;99.90;;;;;;4897650;29;20097;-75
2022/04/14 07:37:48;;;;;;;29.33;14.23;;;11.70;99.90;;;;;;4914853;29;20044;-77
2022/04/14 07:40:14;;;;;;;26.63;12.85;;;11.80;99.90;;;;;;4896557;29;20069;-79
2022/04/14 07:42:45;;;;;;;27.55;12.73;;;11.90;99.90;;;;;;4905682;29;20539;-78
2022/04/14 07:45:13;;;;;;;34.85;14.20;;;12.00;99.90;;;;;;4887779;29;20108;-75
2022/04/14 07:47:42;;;;;;;29.88;12.70;;;12.10;99.90;;;;;;4899073;29;20053;-75
2022/04/14 07:50:15;;;;;;;29.30;13.57;;;12.20;99.90;;;;;;4879244;29;20059;-75
2022/04/14 07:52:52;;;;;;;24.88;13.38;;;12.30;99.90;;;;;;4896059;29;20584;-74
2022/04/14 07:55:19;;;;;;;27.52;12.93;;;12.40;99.90;;;;;;4895890;29;20135;-76
2022/04/14 07:57:46;;;;;;;24.98;12.57;;;12.60;99.90;;;;;;4897322;29;20045;-78
2022/04/14 08:00:12;;;;;;;27.42;13.00;;;12.70;99.90;;;;;;4905741;29;20381;-73
2022/04/14 08:02:46;;;;;;;29.13;13.00;;;12.70;99.90;;;;;;4886515;29;20095;-71
2022/04/14 08:05:12;;;;;;;28.58;12.82;;;12.80;99.90;;;;;;4914285;29;20144;-71
2022/04/14 08:07:38;;;;;;;28.13;13.10;;;12.90;99.90;;;;;;4898084;29;20135;-72
2022/04/14 08:10:04;;;;;;;25.52;12.15;;;13.00;99.90;;;;;;4897694;29;20765;-81
2022/04/14 08:12:29;;;;;;;24.98;12.13;;;13.10;99.90;;;;;;4915047;29;20048;-78
2022/04/14 08:14:55;;;;;;;29.83;12.88;;;13.10;99.90;;;;;;4914617;29;20670;-75
2022/04/14 08:17:21;;;;;;;24.75;12.27;;;13.30;99.90;;;;;;4897082;29;20410;-77
2022/04/14 08:19:46;;;;;;;25.33;11.10;;;13.40;99.90;;;;;;4916233;29;20117;-80
2022/04/14 08:22:12;;;;;;;24.13;12.02;;;13.50;99.90;;;;;;4918430;29;20047;-76
2022/04/14 08:24:38;;;;;;;20.52;10.43;;;13.60;99.90;;;;;;4918273;29;20360;-78
2022/04/14 08:27:03;;;;;;;27.33;12.07;;;13.70;99.90;;;;;;4918225;29;20052;-75
2022/04/14 08:29:29;;;;;;;19.92;10.68;;;13.70;99.90;;;;;;4918092;29;20056;-77
2022/04/14 08:31:56;;;;;;;20.70;10.65;;;13.80;99.90;;;;;;4900899;29;20107;-77
2022/04/14 08:34:22;;;;;;;23.60;11.52;;;13.90;99.90;;;;;;4900330;29;20048;-77
2022/04/14 08:36:47;;;;;;;22.23;10.45;;;14.00;99.90;;;;;;4917852;29;20484;-73
2022/04/14 08:39:13;;;;;;;20.83;10.02;;;14.00;99.90;;;;;;4900711;29;20184;-72
2022/04/14 08:41:44;;;;;;;19.08;9.32;;;14.00;99.90;;;;;;4918182;29;20060;-79
2022/04/14 08:44:10;;;;;;;17.08;8.52;;;14.20;99.90;;;;;;4917794;29;20036;-79
2022/04/14 08:46:39;;;;;;;19.33;9.65;;;14.40;99.90;;;;;;4917724;29;20047;-78
2022/04/14 08:49:07;;;;;;;19.30;8.18;;;14.50;99.90;;;;;;4917525;29;20052;-77
2022/04/14 08:51:36;;;;;;;17.60;8.68;;;14.60;99.90;;;;;;4900379;29;20056;-73
2022/04/14 08:54:02;;;;;;;18.77;9.88;;;14.70;99.90;;;;;;4917735;29;20044;-73
2022/04/14 08:56:29;;;;;;;19.33;8.80;;;14.70;99.90;;;;;;4918011;29;20056;-73
2022/04/14 08:58:56;;;;;;;19.80;9.68;;;14.90;99.90;;;;;;4884315;29;20111;-78
2022/04/14 09:01:26;;;;;;;17.77;9.90;;;15.00;99.90;;;;;;4900636;29;20056;-71
2022/04/14 09:03:57;;;;;;;17.17;9.68;;;15.00;99.90;;;;;;4900741;29;20149;-76
2022/04/14 09:06:23;;;;;;;18.88;9.93;;;15.10;99.90;;;;;;4917213;29;20469;-77
2022/04/14 09:08:49;;;;;;;23.55;10.40;;;15.10;99.90;;;;;;4917237;29;20119;-77
2022/04/14 09:11:16;;;;;;;17.38;8.77;;;15.20;99.90;;;;;;4900510;29;20063;-76
2022/04/14 09:13:44;;;;;;;14.77;7.90;;;15.30;99.90;;;;;;4917495;29;20579;-72
2022/04/14 09:16:10;;;;;;;16.48;8.82;;;15.40;99.90;;;;;;4917217;29;20048;-73
2022/04/14 09:18:36;;;;;;;18.15;9.10;;;15.60;99.90;;;;;;4917421;29;20654;-75
2022/04/14 09:21:03;;;;;;;16.38;9.32;;;15.70;99.90;;;;;;4900698;29;20052;-74
2022/04/14 09:23:29;;;;;;;14.85;7.88;;;15.80;99.90;;;;;;4884499;29;20056;-76
2022/04/14 09:26:06;;;;;;;15.18;9.23;;;15.90;99.90;;;;;;4917431;29;20040;-80
2022/04/14 09:28:32;;;;;;;18.58;9.85;;;15.90;99.90;;;;;;4899946;29;20519;-73
2022/04/14 09:31:07;;;;;;;15.32;8.30;;;16.00;99.90;;;;;;4917011;29;20044;-77
2022/04/14 09:33:35;;;;;;;17.08;9.10;;;16.10;99.90;;;;;;4916882;29;20048;-76
2022/04/14 09:36:05;;;;;;;17.52;8.60;;;16.00;99.90;;;;;;4899916;29;20052;-77
2022/04/14 09:38:56;;;;;;;17.98;9.75;;;16.10;99.90;;;;;;4916938;29;20138;-78
2022/04/14 09:41:40;;;;;;;16.23;8.67;;;16.20;99.90;;;;;;4916596;29;20056;-75
2022/04/14 09:44:13;;;;;;;19.70;8.55;;;16.10;99.90;;;;;;4917088;29;20295;-78
2022/04/14 09:46:42;;;;;;;17.00;8.75;;;16.00;99.90;;;;;;4899464;29;20059;-76
2022/04/14 09:49:12;;;;;;;16.35;9.02;;;16.00;99.90;;;;;;4916532;29;20048;-78
2022/04/14 09:51:48;;;;;;;18.42;10.00;;;16.00;99.90;;;;;;4917208;29;20045;-75
2022/04/14 09:54:19;;;;;;;18.98;10.38;;;16.00;99.90;;;;;;4916494;29;20509;-74
2022/04/14 09:56:52;;;;;;;17.83;9.43;;;16.00;99.90;;;;;;4916572;29;20655;-73
2022/04/14 09:59:26;;;;;;;18.55;9.88;;;16.00;99.90;;;;;;4899255;29;20064;-74
2022/04/14 10:02:12;;;;;;;19.23;9.43;;;15.90;99.90;;;;;;4917076;29;20626;-77
2022/04/14 10:04:45;;;;;;;16.67;9.02;;;16.00;99.90;;;;;;4916641;29;20382;-74
2022/04/14 10:07:16;;;;;;;16.85;9.10;;;16.20;99.90;;;;;;4899917;29;20052;-74
2022/04/14 10:09:48;;;;;;;17.08;8.85;;;16.10;99.90;;;;;;4899576;29;20402;-73
2022/04/14 10:12:19;;;;;;;17.17;8.13;;;16.20;99.90;;;;;;4916184;29;20128;-74
2022/04/14 10:15:04;;;;;;;17.05;8.00;;;16.20;99.90;;;;;;4916478;29;20063;-74
2022/04/14 10:17:41;;;;;;;16.25;8.30;;;16.20;99.90;;;;;;4899094;29;20111;-73
2022/04/14 10:20:12;;;;;;;16.35;9.25;;;16.10;99.90;;;;;;4916255;29;20056;-73
2022/04/14 10:22:38;;;;;;;15.93;8.55;;;16.30;99.90;;;;;;4916091;29;20056;-75
2022/04/14 10:25:05;;;;;;;14.98;8.48;;;16.30;99.90;;;;;;4916273;29;20036;-74
2022/04/14 10:27:33;;;;;;;18.90;10.05;;;16.40;99.90;;;;;;4915615;29;20171;-75
2022/04/14 10:29:59;;;;;;;16.98;8.40;;;16.60;99.90;;;;;;4916091;29;20060;-74
2022/04/14 10:32:25;;;;;;;15.27;7.95;;;16.80;99.90;;;;;;4915958;29;20040;-76
2022/04/14 10:34:52;;;;;;;17.02;9.13;;;16.80;99.90;;;;;;4915928;29;20531;-76
2022/04/14 10:37:27;;;;;;;15.07;9.40;;;16.70;99.90;;;;;;4916139;29;20040;-74
2022/04/14 10:39:55;;;;;;;16.83;8.07;;;16.60;99.90;;;;;;4916009;29;20044;-76
2022/04/14 10:42:24;;;;;;;14.80;7.90;;;16.60;99.90;;;;;;4897809;29;20432;-74
2022/04/14 10:44:52;;;;;;;13.95;7.70;;;16.80;99.90;;;;;;4913803;29;20041;-75
2022/04/14 10:47:54;;;;;;;16.88;9.43;;;17.00;99.90;;;;;;4915886;29;20087;-75
2022/04/14 10:50:29;;;;;;;15.00;9.55;;;16.90;99.90;;;;;;4915234;29;20052;-76
2022/04/14 10:53:06;;;;;;;13.07;7.80;;;17.00;99.90;;;;;;4916004;29;20086;-74
2022/04/14 10:55:44;;;;;;;12.57;6.90;;;17.30;99.90;;;;;;4915226;29;20043;-74
2022/04/14 10:58:35;;;;;;;17.10;6.43;;;17.60;99.90;;;;;;4915977;29;20044;-74
2022/04/14 11:01:01;;;;;;;13.10;6.68;;;17.90;99.90;;;;;;4897987;29;20044;-75
2022/04/14 11:03:55;;;;;;;11.73;5.65;;;18.10;99.90;;;;;;5088510;27;20393;-74
2022/04/14 11:06:39;;;;;;;9.15;4.57;;;18.00;99.90;;;;;;5087878;28;20044;-72
2022/04/14 11:09:06;;;;;;;10.13;4.38;;;18.00;99.90;;;;;;5088517;28;20067;-72
2022/04/14 11:11:59;;;;;;;12.52;4.95;;;18.10;99.90;;;;;;5087778;28;20044;-73
2022/04/14 11:14:24;;;;;;;11.15;4.97;;;18.00;99.90;;;;;;5088280;28;20046;-74
2022/04/14 11:16:50;;;;;;;11.27;4.53;;;18.10;99.90;;;;;;5087422;28;20450;-74
2022/04/14 11:19:18;;;;;;;11.52;5.32;;;18.20;99.90;;;;;;5088052;28;20392;-74
2022/04/14 11:22:02;;;;;;;9.68;4.93;;;18.40;99.90;;;;;;5086153;28;20056;-74
2022/04/14 11:24:38;;;;;;;12.18;5.35;;;18.60;99.90;;;;;;5087946;28;20488;-73
2022/04/14 11:27:19;;;;;;;12.00;5.15;;;18.50;99.90;;;;;;5087053;28;20067;-73
2022/04/14 11:29:51;;;;;;;9.88;4.88;;;18.30;99.90;;;;;;5087288;28;20040;-73
2022/04/14 11:32:36;;;;;;;8.52;4.68;;;18.10;99.90;;;;;;5086709;28;20502;-74
2022/04/14 11:35:13;;;;;;;8.85;4.03;;;18.10;99.90;;;;;;5088019;28;20503;-76
2022/04/14 11:37:44;;;;;;;8.43;3.83;;;18.20;99.90;;;;;;5086822;28;20109;-75
2022/04/14 11:40:15;;;;;;;9.63;3.55;;;18.00;99.90;;;;;;5086689;28;20571;-74
2022/04/14 11:42:41;;;;;;;10.33;3.30;;;17.90;99.90;;;;;;5086486;28;20048;-71
2022/04/14 11:45:07;;;;;;;8.82;3.45;;;17.80;99.90;;;;;;5087587;28;20041;-72
2022/04/14 11:47:34;;;;;;;8.52;3.30;;;17.80;99.90;;;;;;5086477;28;20086;-72
2022/04/14 11:49:59;;;;;;;7.30;2.90;;;17.90;99.90;;;;;;5087218;28;20041;-73
2022/04/14 11:52:25;;;;;;;9.73;3.88;;;17.90;99.90;;;;;;5119955;27;20063;-72
2022/04/14 11:54:53;;;;;;;8.18;3.80;;;18.40;99.90;;;;;;5087159;28;20055;-73
2022/04/14 11:57:20;;;;;;;10.50;4.20;;;17.70;99.90;;;;;;5087659;28;20109;-73
2022/04/14 11:59:47;;;;;;;10.75;4.22;;;17.50;99.90;;;;;;5087527;28;20048;-73
2022/04/14 12:02:24;;;;;;;12.90;4.90;;;17.30;99.90;;;;;;5087292;28;20098;-73
2022/04/14 12:04:55;;;;;;;12.85;5.22;;;17.10;99.90;;;;;;5085670;28;20059;-74
2022/04/14 12:07:23;;;;;;;9.10;4.20;;;17.10;99.90;;;;;;5087127;28;20047;-72
2022/04/14 12:09:58;;;;;;;8.68;3.33;;;17.00;99.90;;;;;;5087955;28;20403;-74
2022/04/14 12:12:24;;;;;;;7.78;2.65;;;17.00;99.90;;;;;;5085766;28;20044;-71
2022/04/14 12:14:52;;;;;;;10.52;3.15;;;16.90;99.90;;;;;;5073034;28;20098;-72
2022/04/14 12:17:22;;;;;;;7.60;3.17;;;16.90;99.90;;;;;;5073446;28;20040;-73
2022/04/14 12:19:56;;;;;;;8.95;3.75;;;17.00;99.90;;;;;;5073681;28;20127;-72
2022/04/14 12:22:23;;;;;;;12.98;6.85;;;17.00;99.90;;;;;;5073244;28;20044;-74
2022/04/14 12:24:55;;;;;;;14.30;6.97;;;17.00;99.90;;;;;;5072762;28;20053;-76
2022/04/14 12:27:34;;;;;;;15.43;7.00;;;17.10;99.90;;;;;;5054967;28;20536;-75
2022/04/14 12:30:22;;;;;;;11.45;6.05;;;17.20;99.90;;;;;;5072169;28;20040;-72
2022/04/14 12:32:48;;;;;;;10.63;5.63;;;17.50;99.90;;;;;;5073212;28;20044;-75
2022/04/14 12:35:31;;;;;;;10.13;4.93;;;17.60;99.90;;;;;;5068765;28;20141;-74
2022/04/14 12:38:16;;;;;;;9.38;3.20;;;17.70;99.90;;;;;;5064418;28;20411;-73
2022/04/14 12:41:03;;;;;;;5.68;2.50;;;17.70;99.90;;;;;;5052914;28;20049;-74